sensor_id;sensor_type;location;lat;lon;timestamp;P1;durP1;ratioP1;P2;durP2;ratioP2
15950;SDS011;8074;48.112;11.570;2022-07-03T00:01:27;9.83;;;6.63;;
15950;SDS011;8074;48.112;11.570;2022-07-03T00:03:54;8.73;;;6.33;;
15950;SDS011;8074;48.112;11.570;2022-07-03T00:06:21;8.03;;;6.10;;
15950;SDS011;8074;48.112;11.570;2022-07-03T00:08:48;6.77;;;6.13;;
15950;SDS011;8074;48.112;11.570;2022-07-03T00:11:15;7.93;;;6.37;;
15950;SDS011;8074;48.112;11.570;2022-07-03T00:13:43;6.47;;;5.60;;
15950;SDS011;8074;48.112;11.570;2022-07-03T00:16:11;7.40;;;6.10;;
15950;SDS011;8074;48.112;11.570;2022-07-03T00:18:38;6.60;;;5.90;;
15950;SDS011;8074;48.112;11.570;2022-07-03T00:21:06;6.67;;;5.97;;
15950;SDS011;8074;48.112;11.570;2022-07-03T00:23:38;6.80;;;5.57;;
15950;SDS011;8074;48.112;11.570;2022-07-03T00:26:07;6.87;;;6.00;;
15950;SDS011;8074;48.112;11.570;2022-07-03T00:28:35;6.23;;;5.63;;
15950;SDS011;8074;48.112;11.570;2022-07-03T00:31:02;7.53;;;5.77;;
15950;SDS011;8074;48.112;11.570;2022-07-03T00:33:31;6.43;;;5.60;;
15950;SDS011;8074;48.112;11.570;2022-07-03T00:36:00;6.10;;;5.17;;
15950;SDS011;8074;48.112;11.570;2022-07-03T00:38:28;5.70;;;5.10;;
15950;SDS011;8074;48.112;11.570;2022-07-03T00:40:55;5.57;;;4.53;;
15950;SDS011;8074;48.112;11.570;2022-07-03T00:43:22;6.57;;;3.90;;
15950;SDS011;8074;48.112;11.570;2022-07-03T00:45:51;6.07;;;4.50;;
15950;SDS011;8074;48.112;11.570;2022-07-03T00:48:19;5.20;;;4.70;;
15950;SDS011;8074;48.112;11.570;2022-07-03T00:50:49;4.77;;;4.30;;
15950;SDS011;8074;48.112;11.570;2022-07-03T00:53:17;4.70;;;4.30;;
15950;SDS011;8074;48.112;11.570;2022-07-03T00:55:46;4.47;;;4.07;;
15950;SDS011;8074;48.112;11.570;2022-07-03T00:58:15;5.87;;;4.17;;
15950;SDS011;8074;48.112;11.570;2022-07-03T01:00:43;9.07;;;4.77;;
15950;SDS011;8074;48.112;11.570;2022-07-03T01:03:13;6.10;;;4.07;;
15950;SDS011;8074;48.112;11.570;2022-07-03T01:05:42;4.10;;;3.70;;
15950;SDS011;8074;48.112;11.570;2022-07-03T01:08:16;3.63;;;3.23;;
15950;SDS011;8074;48.112;11.570;2022-07-03T01:10:49;4.10;;;3.70;;
15950;SDS011;8074;48.112;11.570;2022-07-03T01:13:24;6.77;;;3.73;;
15950;SDS011;8074;48.112;11.570;2022-07-03T01:15:58;5.23;;;4.20;;
15950;SDS011;8074;48.112;11.570;2022-07-03T01:18:35;4.03;;;3.63;;
15950;SDS011;8074;48.112;11.570;2022-07-03T01:21:07;5.40;;;3.50;;
15950;SDS011;8074;48.112;11.570;2022-07-03T01:23:51;5.33;;;3.80;;
15950;SDS011;8074;48.112;11.570;2022-07-03T01:26:37;4.13;;;3.60;;
15950;SDS011;8074;48.112;11.570;2022-07-03T01:29:08;3.83;;;3.30;;
15950;SDS011;8074;48.112;11.570;2022-07-03T01:31:38;5.10;;;3.63;;
15950;SDS011;8074;48.112;11.570;2022-07-03T01:34:08;4.27;;;3.87;;
15950;SDS011;8074;48.112;11.570;2022-07-03T01:36:40;5.20;;;4.20;;
15950;SDS011;8074;48.112;11.570;2022-07-03T01:39:09;5.87;;;5.17;;
15950;SDS011;8074;48.112;11.570;2022-07-03T01:41:38;5.50;;;4.17;;
15950;SDS011;8074;48.112;11.570;2022-07-03T01:44:05;5.90;;;5.27;;
15950;SDS011;8074;48.112;11.570;2022-07-03T01:46:37;7.07;;;5.20;;
15950;SDS011;8074;48.112;11.570;2022-07-03T01:49:08;6.73;;;4.20;;
15950;SDS011;8074;48.112;11.570;2022-07-03T01:51:37;3.87;;;3.20;;
15950;SDS011;8074;48.112;11.570;2022-07-03T01:54:05;4.80;;;4.30;;
15950;SDS011;8074;48.112;11.570;2022-07-03T01:56:34;4.20;;;3.60;;
15950;SDS011;8074;48.112;11.570;2022-07-03T01:59:03;5.10;;;3.60;;
15950;SDS011;8074;48.112;11.570;2022-07-03T02:01:30;4.13;;;3.10;;
15950;SDS011;8074;48.112;11.570;2022-07-03T02:04:03;5.47;;;3.87;;
15950;SDS011;8074;48.112;11.570;2022-07-03T02:06:36;3.73;;;2.93;;
15950;SDS011;8074;48.112;11.570;2022-07-03T02:09:07;5.40;;;3.10;;
15950;SDS011;8074;48.112;11.570;2022-07-03T02:11:36;4.47;;;3.27;;
15950;SDS011;8074;48.112;11.570;2022-07-03T02:14:10;3.20;;;2.90;;
15950;SDS011;8074;48.112;11.570;2022-07-03T02:16:43;4.00;;;3.17;;
15950;SDS011;8074;48.112;11.570;2022-07-03T02:19:16;3.53;;;2.67;;
15950;SDS011;8074;48.112;11.570;2022-07-03T02:21:45;4.33;;;3.00;;
15950;SDS011;8074;48.112;11.570;2022-07-03T02:24:16;4.67;;;3.40;;
15950;SDS011;8074;48.112;11.570;2022-07-03T02:26:48;3.67;;;3.37;;
15950;SDS011;8074;48.112;11.570;2022-07-03T02:29:25;4.63;;;3.30;;
15950;SDS011;8074;48.112;11.570;2022-07-03T02:31:58;4.73;;;3.43;;
15950;SDS011;8074;48.112;11.570;2022-07-03T02:34:27;5.50;;;3.13;;
15950;SDS011;8074;48.112;11.570;2022-07-03T02:36:57;3.10;;;2.80;;
15950;SDS011;8074;48.112;11.570;2022-07-03T02:39:35;6.20;;;2.97;;
15950;SDS011;8074;48.112;11.570;2022-07-03T02:42:11;4.07;;;3.03;;
15950;SDS011;8074;48.112;11.570;2022-07-03T02:44:47;4.80;;;3.20;;
15950;SDS011;8074;48.112;11.570;2022-07-03T02:47:20;5.90;;;3.43;;
15950;SDS011;8074;48.112;11.570;2022-07-03T02:49:55;3.90;;;3.10;;
15950;SDS011;8074;48.112;11.570;2022-07-03T02:52:32;3.47;;;2.87;;
15950;SDS011;8074;48.112;11.570;2022-07-03T02:55:17;3.80;;;3.20;;
15950;SDS011;8074;48.112;11.570;2022-07-03T02:58:01;3.77;;;3.20;;
15950;SDS011;8074;48.112;11.570;2022-07-03T03:00:52;3.40;;;3.10;;
15950;SDS011;8074;48.112;11.570;2022-07-03T03:03:24;3.70;;;3.20;;
15950;SDS011;8074;48.112;11.570;2022-07-03T03:05:55;6.50;;;3.10;;
15950;SDS011;8074;48.112;11.570;2022-07-03T03:08:29;4.77;;;3.10;;
15950;SDS011;8074;48.112;11.570;2022-07-03T03:11:03;4.90;;;3.20;;
15950;SDS011;8074;48.112;11.570;2022-07-03T03:13:33;3.80;;;3.37;;
15950;SDS011;8074;48.112;11.570;2022-07-03T03:16:04;3.80;;;3.00;;
15950;SDS011;8074;48.112;11.570;2022-07-03T03:18:50;4.30;;;3.10;;
15950;SDS011;8074;48.112;11.570;2022-07-03T03:21:40;4.53;;;2.93;;
15950;SDS011;8074;48.112;11.570;2022-07-03T03:24:22;4.03;;;2.83;;
15950;SDS011;8074;48.112;11.570;2022-07-03T03:26:51;3.50;;;3.20;;
15950;SDS011;8074;48.112;11.570;2022-07-03T03:29:18;4.60;;;3.10;;
15950;SDS011;8074;48.112;11.570;2022-07-03T03:31:46;4.03;;;3.00;;
15950;SDS011;8074;48.112;11.570;2022-07-03T03:34:13;3.20;;;2.90;;
15950;SDS011;8074;48.112;11.570;2022-07-03T03:36:41;3.70;;;3.37;;
15950;SDS011;8074;48.112;11.570;2022-07-03T03:39:08;3.47;;;3.17;;
15950;SDS011;8074;48.112;11.570;2022-07-03T03:41:35;3.50;;;3.03;;
15950;SDS011;8074;48.112;11.570;2022-07-03T03:44:02;3.60;;;3.10;;
15950;SDS011;8074;48.112;11.570;2022-07-03T03:46:29;5.87;;;4.93;;
15950;SDS011;8074;48.112;11.570;2022-07-03T03:48:57;5.10;;;3.77;;
15950;SDS011;8074;48.112;11.570;2022-07-03T03:51:24;4.03;;;3.30;;
15950;SDS011;8074;48.112;11.570;2022-07-03T03:53:51;6.77;;;3.67;;
15950;SDS011;8074;48.112;11.570;2022-07-03T03:56:18;7.80;;;3.43;;
15950;SDS011;8074;48.112;11.570;2022-07-03T03:58:45;3.73;;;3.20;;
15950;SDS011;8074;48.112;11.570;2022-07-03T04:01:12;5.23;;;3.30;;
15950;SDS011;8074;48.112;11.570;2022-07-03T04:03:39;4.00;;;3.23;;
15950;SDS011;8074;48.112;11.570;2022-07-03T04:06:08;4.10;;;3.40;;
15950;SDS011;8074;48.112;11.570;2022-07-03T04:08:34;4.87;;;3.37;;
15950;SDS011;8074;48.112;11.570;2022-07-03T04:11:01;4.40;;;3.30;;
15950;SDS011;8074;48.112;11.570;2022-07-03T04:13:28;4.60;;;3.50;;
15950;SDS011;8074;48.112;11.570;2022-07-03T04:15:55;4.40;;;3.33;;
15950;SDS011;8074;48.112;11.570;2022-07-03T04:18:23;3.63;;;3.27;;
15950;SDS011;8074;48.112;11.570;2022-07-03T04:20:50;3.67;;;3.20;;
15950;SDS011;8074;48.112;11.570;2022-07-03T04:23:18;4.13;;;3.20;;
15950;SDS011;8074;48.112;11.570;2022-07-03T04:25:45;3.30;;;2.97;;
15950;SDS011;8074;48.112;11.570;2022-07-03T04:28:12;3.70;;;3.27;;
15950;SDS011;8074;48.112;11.570;2022-07-03T04:30:39;4.53;;;3.30;;
15950;SDS011;8074;48.112;11.570;2022-07-03T04:33:06;2.93;;;2.60;;
15950;SDS011;8074;48.112;11.570;2022-07-03T04:35:33;4.30;;;2.93;;
15950;SDS011;8074;48.112;11.570;2022-07-03T04:38:00;3.27;;;2.93;;
15950;SDS011;8074;48.112;11.570;2022-07-03T04:40:28;3.37;;;2.80;;
15950;SDS011;8074;48.112;11.570;2022-07-03T04:42:55;4.33;;;2.80;;
15950;SDS011;8074;48.112;11.570;2022-07-03T04:45:22;4.40;;;3.20;;
15950;SDS011;8074;48.112;11.570;2022-07-03T04:47:49;4.27;;;2.93;;
15950;SDS011;8074;48.112;11.570;2022-07-03T04:50:16;3.87;;;3.10;;
15950;SDS011;8074;48.112;11.570;2022-07-03T04:52:43;4.03;;;3.63;;
15950;SDS011;8074;48.112;11.570;2022-07-03T04:55:10;4.33;;;3.93;;
15950;SDS011;8074;48.112;11.570;2022-07-03T04:57:38;4.03;;;2.73;;
15950;SDS011;8074;48.112;11.570;2022-07-03T05:00:06;3.27;;;2.97;;
15950;SDS011;8074;48.112;11.570;2022-07-03T05:02:33;4.27;;;3.63;;
15950;SDS011;8074;48.112;11.570;2022-07-03T05:05:00;3.93;;;3.20;;
15950;SDS011;8074;48.112;11.570;2022-07-03T05:07:27;3.13;;;2.77;;
15950;SDS011;8074;48.112;11.570;2022-07-03T05:09:54;4.57;;;3.40;;
15950;SDS011;8074;48.112;11.570;2022-07-03T05:12:21;4.67;;;2.50;;
15950;SDS011;8074;48.112;11.570;2022-07-03T05:14:49;3.57;;;2.50;;
15950;SDS011;8074;48.112;11.570;2022-07-03T05:17:16;6.40;;;2.80;;
15950;SDS011;8074;48.112;11.570;2022-07-03T05:19:44;3.07;;;2.77;;
15950;SDS011;8074;48.112;11.570;2022-07-03T05:22:11;5.07;;;3.00;;
15950;SDS011;8074;48.112;11.570;2022-07-03T05:24:38;4.80;;;2.50;;
15950;SDS011;8074;48.112;11.570;2022-07-03T05:27:05;3.27;;;2.47;;
15950;SDS011;8074;48.112;11.570;2022-07-03T05:29:32;3.23;;;2.07;;
15950;SDS011;8074;48.112;11.570;2022-07-03T05:32:00;3.80;;;2.40;;
15950;SDS011;8074;48.112;11.570;2022-07-03T05:34:27;2.50;;;2.30;;
15950;SDS011;8074;48.112;11.570;2022-07-03T05:36:54;3.57;;;3.27;;
15950;SDS011;8074;48.112;11.570;2022-07-03T05:39:22;5.60;;;2.70;;
15950;SDS011;8074;48.112;11.570;2022-07-03T05:42:03;3.23;;;2.30;;
15950;SDS011;8074;48.112;11.570;2022-07-03T05:44:30;3.30;;;2.47;;
15950;SDS011;8074;48.112;11.570;2022-07-03T05:46:57;3.70;;;2.20;;
15950;SDS011;8074;48.112;11.570;2022-07-03T05:49:25;2.83;;;2.50;;
15950;SDS011;8074;48.112;11.570;2022-07-03T05:51:52;4.53;;;2.37;;
15950;SDS011;8074;48.112;11.570;2022-07-03T05:54:19;2.93;;;2.17;;
15950;SDS011;8074;48.112;11.570;2022-07-03T05:56:46;5.73;;;2.13;;
15950;SDS011;8074;48.112;11.570;2022-07-03T05:59:13;2.23;;;2.03;;
15950;SDS011;8074;48.112;11.570;2022-07-03T06:01:40;3.13;;;2.20;;
15950;SDS011;8074;48.112;11.570;2022-07-03T06:04:07;2.93;;;2.30;;
15950;SDS011;8074;48.112;11.570;2022-07-03T06:06:35;3.57;;;2.77;;
15950;SDS011;8074;48.112;11.570;2022-07-03T06:09:02;4.37;;;2.97;;
15950;SDS011;8074;48.112;11.570;2022-07-03T06:11:29;3.50;;;2.40;;
15950;SDS011;8074;48.112;11.570;2022-07-03T06:13:56;3.43;;;2.93;;
15950;SDS011;8074;48.112;11.570;2022-07-03T06:16:23;2.20;;;2.00;;
15950;SDS011;8074;48.112;11.570;2022-07-03T06:18:50;2.20;;;2.00;;
15950;SDS011;8074;48.112;11.570;2022-07-03T06:21:17;4.63;;;2.30;;
15950;SDS011;8074;48.112;11.570;2022-07-03T06:23:45;3.47;;;2.23;;
15950;SDS011;8074;48.112;11.570;2022-07-03T06:26:12;2.40;;;1.90;;
15950;SDS011;8074;48.112;11.570;2022-07-03T06:28:39;2.20;;;2.00;;
15950;SDS011;8074;48.112;11.570;2022-07-03T06:31:06;2.83;;;1.73;;
15950;SDS011;8074;48.112;11.570;2022-07-03T06:33:33;3.80;;;1.87;;
15950;SDS011;8074;48.112;11.570;2022-07-03T06:36:00;5.50;;;3.20;;
15950;SDS011;8074;48.112;11.570;2022-07-03T06:38:27;2.40;;;1.90;;
15950;SDS011;8074;48.112;11.570;2022-07-03T06:40:56;2.53;;;1.80;;
15950;SDS011;8074;48.112;11.570;2022-07-03T06:43:23;2.13;;;1.93;;
15950;SDS011;8074;48.112;11.570;2022-07-03T06:45:49;1.83;;;1.73;;
15950;SDS011;8074;48.112;11.570;2022-07-03T06:48:16;3.10;;;1.80;;
15950;SDS011;8074;48.112;11.570;2022-07-03T06:50:44;4.97;;;3.80;;
15950;SDS011;8074;48.112;11.570;2022-07-03T06:53:12;2.57;;;2.00;;
15950;SDS011;8074;48.112;11.570;2022-07-03T06:55:39;3.70;;;1.80;;
15950;SDS011;8074;48.112;11.570;2022-07-03T06:58:07;4.70;;;1.90;;
15950;SDS011;8074;48.112;11.570;2022-07-03T07:00:34;2.00;;;1.70;;
15950;SDS011;8074;48.112;11.570;2022-07-03T07:03:01;2.53;;;1.60;;
15950;SDS011;8074;48.112;11.570;2022-07-03T07:05:28;2.03;;;1.80;;
15950;SDS011;8074;48.112;11.570;2022-07-03T07:07:55;2.50;;;2.10;;
15950;SDS011;8074;48.112;11.570;2022-07-03T07:10:22;2.10;;;1.63;;
15950;SDS011;8074;48.112;11.570;2022-07-03T07:12:49;2.80;;;1.80;;
15950;SDS011;8074;48.112;11.570;2022-07-03T07:15:18;3.77;;;1.60;;
15950;SDS011;8074;48.112;11.570;2022-07-03T07:17:45;1.90;;;1.60;;
15950;SDS011;8074;48.112;11.570;2022-07-03T07:20:12;5.53;;;1.90;;
15950;SDS011;8074;48.112;11.570;2022-07-03T07:22:39;2.07;;;1.87;;
15950;SDS011;8074;48.112;11.570;2022-07-03T07:25:06;3.17;;;1.73;;
15950;SDS011;8074;48.112;11.570;2022-07-03T07:27:33;2.03;;;1.80;;
15950;SDS011;8074;48.112;11.570;2022-07-03T07:30:00;3.23;;;1.80;;
15950;SDS011;8074;48.112;11.570;2022-07-03T07:32:29;4.07;;;1.90;;
15950;SDS011;8074;48.112;11.570;2022-07-03T07:34:56;2.30;;;1.67;;
15950;SDS011;8074;48.112;11.570;2022-07-03T07:37:22;1.60;;;1.50;;
15950;SDS011;8074;48.112;11.570;2022-07-03T07:39:49;2.60;;;1.70;;
15950;SDS011;8074;48.112;11.570;2022-07-03T07:42:16;2.00;;;1.80;;
15950;SDS011;8074;48.112;11.570;2022-07-03T07:44:44;1.60;;;1.50;;
15950;SDS011;8074;48.112;11.570;2022-07-03T07:47:11;1.60;;;1.50;;
15950;SDS011;8074;48.112;11.570;2022-07-03T07:49:40;2.93;;;1.60;;
15950;SDS011;8074;48.112;11.570;2022-07-03T07:52:06;6.87;;;3.13;;
15950;SDS011;8074;48.112;11.570;2022-07-03T07:54:33;1.87;;;1.60;;
15950;SDS011;8074;48.112;11.570;2022-07-03T07:57:00;2.20;;;1.70;;
15950;SDS011;8074;48.112;11.570;2022-07-03T07:59:27;1.70;;;1.50;;
15950;SDS011;8074;48.112;11.570;2022-07-03T08:01:54;4.97;;;1.80;;
15950;SDS011;8074;48.112;11.570;2022-07-03T08:04:40;2.53;;;1.63;;
15950;SDS011;8074;48.112;11.570;2022-07-03T08:07:25;2.73;;;1.53;;
15950;SDS011;8074;48.112;11.570;2022-07-03T08:09:52;2.20;;;1.80;;
15950;SDS011;8074;48.112;11.570;2022-07-03T08:12:19;1.93;;;1.57;;
15950;SDS011;8074;48.112;11.570;2022-07-03T08:14:46;2.03;;;1.70;;
15950;SDS011;8074;48.112;11.570;2022-07-03T08:17:12;3.87;;;1.80;;
15950;SDS011;8074;48.112;11.570;2022-07-03T08:19:42;2.57;;;1.70;;
15950;SDS011;8074;48.112;11.570;2022-07-03T08:22:09;1.70;;;1.60;;
15950;SDS011;8074;48.112;11.570;2022-07-03T08:24:36;2.80;;;1.70;;
15950;SDS011;8074;48.112;11.570;2022-07-03T08:27:04;3.07;;;2.77;;
15950;SDS011;8074;48.112;11.570;2022-07-03T08:29:31;2.17;;;1.50;;
15950;SDS011;8074;48.112;11.570;2022-07-03T08:31:58;3.33;;;1.70;;
15950;SDS011;8074;48.112;11.570;2022-07-03T08:34:25;2.60;;;1.70;;
15950;SDS011;8074;48.112;11.570;2022-07-03T08:36:54;1.57;;;1.47;;
15950;SDS011;8074;48.112;11.570;2022-07-03T08:39:21;1.87;;;1.50;;
15950;SDS011;8074;48.112;11.570;2022-07-03T08:41:48;1.97;;;1.57;;
15950;SDS011;8074;48.112;11.570;2022-07-03T08:44:24;1.70;;;1.57;;
15950;SDS011;8074;48.112;11.570;2022-07-03T08:46:52;1.93;;;1.40;;
15950;SDS011;8074;48.112;11.570;2022-07-03T08:49:21;2.20;;;1.50;;
15950;SDS011;8074;48.112;11.570;2022-07-03T08:51:49;1.80;;;1.30;;
15950;SDS011;8074;48.112;11.570;2022-07-03T08:54:19;1.77;;;1.20;;
15950;SDS011;8074;48.112;11.570;2022-07-03T08:56:46;1.60;;;1.40;;
15950;SDS011;8074;48.112;11.570;2022-07-03T08:59:14;2.47;;;1.47;;
15950;SDS011;8074;48.112;11.570;2022-07-03T09:01:43;2.13;;;1.30;;
15950;SDS011;8074;48.112;11.570;2022-07-03T09:04:12;2.30;;;1.40;;
15950;SDS011;8074;48.112;11.570;2022-07-03T09:06:40;3.53;;;3.23;;
15950;SDS011;8074;48.112;11.570;2022-07-03T09:09:08;3.00;;;1.30;;
15950;SDS011;8074;48.112;11.570;2022-07-03T09:11:55;1.20;;;1.10;;
15950;SDS011;8074;48.112;11.570;2022-07-03T09:14:42;2.00;;;1.23;;
15950;SDS011;8074;48.112;11.570;2022-07-03T09:17:29;1.53;;;1.40;;
15950;SDS011;8074;48.112;11.570;2022-07-03T09:20:17;2.20;;;1.53;;
15950;SDS011;8074;48.112;11.570;2022-07-03T09:23:14;2.47;;;1.20;;
15950;SDS011;8074;48.112;11.570;2022-07-03T09:26:02;1.30;;;1.20;;
15950;SDS011;8074;48.112;11.570;2022-07-03T09:28:52;1.80;;;1.20;;
15950;SDS011;8074;48.112;11.570;2022-07-03T09:31:41;1.83;;;1.20;;
15950;SDS011;8074;48.112;11.570;2022-07-03T09:34:29;0.97;;;0.90;;
15950;SDS011;8074;48.112;11.570;2022-07-03T09:37:23;1.20;;;1.10;;
15950;SDS011;8074;48.112;11.570;2022-07-03T09:40:11;3.47;;;1.20;;
15950;SDS011;8074;48.112;11.570;2022-07-03T09:43:02;2.27;;;1.20;;
15950;SDS011;8074;48.112;11.570;2022-07-03T09:45:56;1.93;;;1.30;;
15950;SDS011;8074;48.112;11.570;2022-07-03T09:48:44;2.47;;;1.20;;
15950;SDS011;8074;48.112;11.570;2022-07-03T09:51:33;1.40;;;1.30;;
15950;SDS011;8074;48.112;11.570;2022-07-03T09:54:21;1.30;;;1.20;;
15950;SDS011;8074;48.112;11.570;2022-07-03T09:57:11;1.60;;;1.13;;
15950;SDS011;8074;48.112;11.570;2022-07-03T10:00:08;1.17;;;1.00;;
15950;SDS011;8074;48.112;11.570;2022-07-03T10:02:59;1.47;;;1.10;;
15950;SDS011;8074;48.112;11.570;2022-07-03T10:05:48;1.63;;;1.20;;
15950;SDS011;8074;48.112;11.570;2022-07-03T10:08:36;1.30;;;1.00;;
15950;SDS011;8074;48.112;11.570;2022-07-03T10:11:04;1.10;;;1.00;;
15950;SDS011;8074;48.112;11.570;2022-07-03T10:13:31;1.13;;;0.90;;
15950;SDS011;8074;48.112;11.570;2022-07-03T10:16:02;1.43;;;0.93;;
15950;SDS011;8074;48.112;11.570;2022-07-03T10:18:35;2.13;;;1.00;;
15950;SDS011;8074;48.112;11.570;2022-07-03T10:21:05;1.20;;;1.00;;
15950;SDS011;8074;48.112;11.570;2022-07-03T10:23:33;1.60;;;1.10;;
15950;SDS011;8074;48.112;11.570;2022-07-03T10:26:00;2.83;;;1.00;;
15950;SDS011;8074;48.112;11.570;2022-07-03T10:28:27;1.20;;;1.10;;
15950;SDS011;8074;48.112;11.570;2022-07-03T10:30:57;1.40;;;1.13;;
15950;SDS011;8074;48.112;11.570;2022-07-03T10:33:26;1.30;;;1.20;;
15950;SDS011;8074;48.112;11.570;2022-07-03T10:35:55;1.00;;;0.90;;
15950;SDS011;8074;48.112;11.570;2022-07-03T10:38:33;0.87;;;0.87;;
15950;SDS011;8074;48.112;11.570;2022-07-03T10:41:05;2.33;;;1.10;;
15950;SDS011;8074;48.112;11.570;2022-07-03T10:43:55;1.10;;;1.00;;
15950;SDS011;8074;48.112;11.570;2022-07-03T10:46:42;4.20;;;1.10;;
15950;SDS011;8074;48.112;11.570;2022-07-03T10:49:09;2.00;;;1.00;;
15950;SDS011;8074;48.112;11.570;2022-07-03T10:51:55;2.20;;;0.93;;
15950;SDS011;8074;48.112;11.570;2022-07-03T10:54:24;3.40;;;1.07;;
15950;SDS011;8074;48.112;11.570;2022-07-03T10:57:15;1.40;;;1.20;;
15950;SDS011;8074;48.112;11.570;2022-07-03T11:03:10;1.63;;;1.00;;
15950;SDS011;8074;48.112;11.570;2022-07-03T11:05:57;2.30;;;1.10;;
15950;SDS011;8074;48.112;11.570;2022-07-03T11:08:46;0.80;;;0.80;;
15950;SDS011;8074;48.112;11.570;2022-07-03T11:11:34;1.20;;;1.00;;
15950;SDS011;8074;48.112;11.570;2022-07-03T11:14:23;0.80;;;0.80;;
15950;SDS011;8074;48.112;11.570;2022-07-03T11:19:45;1.57;;;0.80;;
15950;SDS011;8074;48.112;11.570;2022-07-03T11:22:36;2.03;;;0.90;;
15950;SDS011;8074;48.112;11.570;2022-07-03T11:25:11;1.37;;;1.23;;
15950;SDS011;8074;48.112;11.570;2022-07-03T11:27:40;1.10;;;1.00;;
15950;SDS011;8074;48.112;11.570;2022-07-03T11:30:08;2.70;;;1.20;;
15950;SDS011;8074;48.112;11.570;2022-07-03T11:32:52;1.10;;;0.90;;
15950;SDS011;8074;48.112;11.570;2022-07-03T11:38:10;1.70;;;1.03;;
15950;SDS011;8074;48.112;11.570;2022-07-03T11:40:39;0.80;;;0.80;;
15950;SDS011;8074;48.112;11.570;2022-07-03T11:43:09;2.40;;;1.00;;
15950;SDS011;8074;48.112;11.570;2022-07-03T11:45:38;1.93;;;1.17;;
15950;SDS011;8074;48.112;11.570;2022-07-03T11:48:08;1.80;;;1.07;;
15950;SDS011;8074;48.112;11.570;2022-07-03T11:50:36;1.30;;;1.10;;
15950;SDS011;8074;48.112;11.570;2022-07-03T11:53:17;1.83;;;1.03;;
15950;SDS011;8074;48.112;11.570;2022-07-03T11:55:58;1.13;;;0.80;;
15950;SDS011;8074;48.112;11.570;2022-07-03T11:58:40;3.30;;;1.00;;
15950;SDS011;8074;48.112;11.570;2022-07-03T12:01:09;1.73;;;1.00;;
15950;SDS011;8074;48.112;11.570;2022-07-03T12:03:38;1.17;;;1.07;;
15950;SDS011;8074;48.112;11.570;2022-07-03T12:06:05;1.63;;;1.03;;
15950;SDS011;8074;48.112;11.570;2022-07-03T12:08:34;3.67;;;0.90;;
15950;SDS011;8074;48.112;11.570;2022-07-03T12:11:03;1.13;;;1.03;;
15950;SDS011;8074;48.112;11.570;2022-07-03T12:13:33;1.60;;;1.23;;
15950;SDS011;8074;48.112;11.570;2022-07-03T12:16:05;1.60;;;1.10;;
15950;SDS011;8074;48.112;11.570;2022-07-03T12:18:42;1.57;;;1.07;;
15950;SDS011;8074;48.112;11.570;2022-07-03T12:21:10;2.60;;;1.13;;
15950;SDS011;8074;48.112;11.570;2022-07-03T12:23:40;3.20;;;1.00;;
15950;SDS011;8074;48.112;11.570;2022-07-03T12:26:10;2.70;;;1.33;;
15950;SDS011;8074;48.112;11.570;2022-07-03T12:28:38;1.20;;;0.80;;
15950;SDS011;8074;48.112;11.570;2022-07-03T12:31:05;3.13;;;1.13;;
15950;SDS011;8074;48.112;11.570;2022-07-03T12:33:32;2.07;;;1.00;;
15950;SDS011;8074;48.112;11.570;2022-07-03T12:36:01;3.00;;;1.10;;
15950;SDS011;8074;48.112;11.570;2022-07-03T12:38:29;1.23;;;0.90;;
15950;SDS011;8074;48.112;11.570;2022-07-03T12:41:02;2.20;;;1.10;;
15950;SDS011;8074;48.112;11.570;2022-07-03T12:43:37;1.17;;;1.00;;
15950;SDS011;8074;48.112;11.570;2022-07-03T12:46:19;2.13;;;1.20;;
15950;SDS011;8074;48.112;11.570;2022-07-03T12:48:48;1.90;;;1.67;;
15950;SDS011;8074;48.112;11.570;2022-07-03T12:51:16;3.15;;;1.20;;
15950;SDS011;8074;48.112;11.570;2022-07-03T12:54:02;2.22;;;1.00;;
15950;SDS011;8074;48.112;11.570;2022-07-03T12:56:29;2.20;;;1.13;;
15950;SDS011;8074;48.112;11.570;2022-07-03T12:58:57;3.65;;;1.20;;
15950;SDS011;8074;48.112;11.570;2022-07-03T13:01:41;1.47;;;1.23;;
15950;SDS011;8074;48.112;11.570;2022-07-03T13:04:09;1.10;;;1.00;;
15950;SDS011;8074;48.112;11.570;2022-07-03T13:06:39;1.50;;;1.10;;
15950;SDS011;8074;48.112;11.570;2022-07-03T13:09:07;1.93;;;1.00;;
15950;SDS011;8074;48.112;11.570;2022-07-03T13:11:35;2.10;;;1.13;;
15950;SDS011;8074;48.112;11.570;2022-07-03T13:14:08;1.30;;;1.13;;
15950;SDS011;8074;48.112;11.570;2022-07-03T13:16:41;1.60;;;1.30;;
15950;SDS011;8074;48.112;11.570;2022-07-03T13:19:10;1.93;;;1.20;;
15950;SDS011;8074;48.112;11.570;2022-07-03T13:21:38;2.07;;;1.20;;
15950;SDS011;8074;48.112;11.570;2022-07-03T13:24:06;1.73;;;1.27;;
15950;SDS011;8074;48.112;11.570;2022-07-03T13:26:33;2.40;;;1.20;;
15950;SDS011;8074;48.112;11.570;2022-07-03T13:29:01;2.38;;;1.15;;
15950;SDS011;8074;48.112;11.570;2022-07-03T13:31:30;2.28;;;1.05;;
15950;SDS011;8074;48.112;11.570;2022-07-03T13:33:57;3.38;;;1.50;;
15950;SDS011;8074;48.112;11.570;2022-07-03T13:36:24;3.45;;;1.17;;
15950;SDS011;8074;48.112;11.570;2022-07-03T13:38:52;1.73;;;1.10;;
15950;SDS011;8074;48.112;11.570;2022-07-03T13:41:19;2.78;;;1.20;;
15950;SDS011;8074;48.112;11.570;2022-07-03T13:43:46;2.17;;;1.40;;
15950;SDS011;8074;48.112;11.570;2022-07-03T13:46:14;3.13;;;1.30;;
15950;SDS011;8074;48.112;11.570;2022-07-03T13:48:42;2.58;;;1.30;;
15950;SDS011;8074;48.112;11.570;2022-07-03T13:51:09;1.40;;;1.20;;
15950;SDS011;8074;48.112;11.570;2022-07-03T13:53:36;1.67;;;1.27;;
15950;SDS011;8074;48.112;11.570;2022-07-03T13:56:03;3.13;;;1.40;;
15950;SDS011;8074;48.112;11.570;2022-07-03T13:58:30;2.47;;;1.30;;
15950;SDS011;8074;48.112;11.570;2022-07-03T14:00:57;2.50;;;1.43;;
15950;SDS011;8074;48.112;11.570;2022-07-03T14:03:26;2.70;;;1.10;;
15950;SDS011;8074;48.112;11.570;2022-07-03T14:05:54;1.93;;;1.10;;
15950;SDS011;8074;48.112;11.570;2022-07-03T14:08:21;2.07;;;1.40;;
15950;SDS011;8074;48.112;11.570;2022-07-03T14:10:48;2.70;;;1.50;;
15950;SDS011;8074;48.112;11.570;2022-07-03T14:13:16;2.77;;;1.50;;
15950;SDS011;8074;48.112;11.570;2022-07-03T14:15:43;2.13;;;1.40;;
15950;SDS011;8074;48.112;11.570;2022-07-03T14:18:10;2.80;;;1.40;;
15950;SDS011;8074;48.112;11.570;2022-07-03T14:20:38;1.30;;;1.20;;
15950;SDS011;8074;48.112;11.570;2022-07-03T14:23:06;1.77;;;1.30;;
15950;SDS011;8074;48.112;11.570;2022-07-03T14:25:33;1.53;;;1.40;;
15950;SDS011;8074;48.112;11.570;2022-07-03T14:28:02;1.90;;;1.40;;
15950;SDS011;8074;48.112;11.570;2022-07-03T14:30:46;2.90;;;1.50;;
15950;SDS011;8074;48.112;11.570;2022-07-03T14:33:31;6.20;;;1.60;;
15950;SDS011;8074;48.112;11.570;2022-07-03T14:35:58;2.03;;;1.27;;
15950;SDS011;8074;48.112;11.570;2022-07-03T14:38:26;4.17;;;1.30;;
15950;SDS011;8074;48.112;11.570;2022-07-03T14:40:53;3.20;;;1.60;;
15950;SDS011;8074;48.112;11.570;2022-07-03T14:43:20;2.67;;;1.40;;
15950;SDS011;8074;48.112;11.570;2022-07-03T14:45:47;2.60;;;1.37;;
15950;SDS011;8074;48.112;11.570;2022-07-03T14:48:13;2.70;;;1.30;;
15950;SDS011;8074;48.112;11.570;2022-07-03T14:50:40;2.30;;;1.45;;
15950;SDS011;8074;48.112;11.570;2022-07-03T14:53:07;4.10;;;1.47;;
15950;SDS011;8074;48.112;11.570;2022-07-03T14:55:37;1.70;;;1.27;;
15950;SDS011;8074;48.112;11.570;2022-07-03T14:58:10;2.57;;;1.33;;
15950;SDS011;8074;48.112;11.570;2022-07-03T15:00:42;2.83;;;1.30;;
15950;SDS011;8074;48.112;11.570;2022-07-03T15:03:15;2.80;;;1.40;;
15950;SDS011;8074;48.112;11.570;2022-07-03T15:05:43;2.37;;;1.33;;
15950;SDS011;8074;48.112;11.570;2022-07-03T15:08:34;1.57;;;1.40;;
15950;SDS011;8074;48.112;11.570;2022-07-03T15:11:22;1.73;;;1.33;;
15950;SDS011;8074;48.112;11.570;2022-07-03T15:14:13;1.47;;;1.30;;
15950;SDS011;8074;48.112;11.570;2022-07-03T15:16:40;2.93;;;1.57;;
15950;SDS011;8074;48.112;11.570;2022-07-03T15:19:09;3.97;;;1.30;;
15950;SDS011;8074;48.112;11.570;2022-07-03T15:21:37;2.33;;;1.30;;